Time;durP1;ratioP1;P1;durP2;ratioP2;P2;SDS_P1;SDS_P2;PMS_P1;PMS_P2;Temp;Humidity;BMP_temperature;BMP_pressure;BME280_temperature;BME280_humidity;BME280_pressure;Samples;Min_cycle;Max_cycle;Signal;HPM_P1;HPM_P2
2023/09/12 00:01:38;;;;;;;13.38;7.90;;;19.70;99.90;;;;;;5060052;28;20041;-86
2023/09/12 00:04:04;;;;;;;12.85;7.97;;;19.80;99.90;;;;;;5052408;28;20505;-85
2023/09/12 00:06:30;;;;;;;14.13;8.75;;;19.70;99.90;;;;;;5059613;28;20054;-85
2023/09/12 00:08:55;;;;;;;13.75;8.70;;;19.70;99.90;;;;;;5052777;28;20037;-86
2023/09/12 00:11:25;;;;;;;11.93;7.65;;;19.70;99.90;;;;;;5063474;28;20044;-86
2023/09/12 00:13:51;;;;;;;13.82;8.65;;;19.70;99.90;;;;;;5062256;28;20052;-85
2023/09/12 00:16:17;;;;;;;14.80;8.48;;;19.70;99.90;;;;;;5062244;28;20051;-85
2023/09/12 00:18:43;;;;;;;14.55;8.45;;;19.70;99.90;;;;;;5060712;28;20040;-86
2023/09/12 00:21:09;;;;;;;13.43;8.93;;;19.70;99.90;;;;;;5061500;28;20047;-86
2023/09/12 00:23:35;;;;;;;13.50;8.70;;;19.70;99.90;;;;;;5060948;28;20037;-86
2023/09/12 00:26:01;;;;;;;13.88;8.93;;;19.70;99.90;;;;;;5061340;28;20033;-86
2023/09/12 00:28:27;;;;;;;15.45;8.85;;;19.70;99.90;;;;;;5044708;28;20071;-86
2023/09/12 00:30:53;;;;;;;14.02;7.93;;;19.60;99.90;;;;;;5055199;28;20052;-86
2023/09/12 00:33:19;;;;;;;12.93;8.55;;;19.60;99.90;;;;;;5065567;28;20048;-86
2023/09/12 00:35:45;;;;;;;13.52;8.02;;;19.60;99.90;;;;;;5056766;28;20113;-86
2023/09/12 00:38:10;;;;;;;13.35;8.82;;;19.60;99.90;;;;;;5056446;28;20311;-86
2023/09/12 00:40:37;;;;;;;13.75;8.73;;;19.60;99.90;;;;;;5047734;28;20531;-86
2023/09/12 00:43:03;;;;;;;13.68;8.80;;;19.50;99.90;;;;;;5049777;28;20398;-85
2023/09/12 00:45:29;;;;;;;14.48;8.35;;;19.60;99.90;;;;;;5074464;28;20051;-86
2023/09/12 00:47:58;;;;;;;12.30;8.13;;;19.50;99.90;;;;;;5061784;28;20036;-86
2023/09/12 00:50:25;;;;;;;13.50;8.60;;;19.60;99.90;;;;;;5061839;28;20571;-86
2023/09/12 00:52:52;;;;;;;14.43;8.38;;;19.50;99.90;;;;;;5067651;28;20035;-86
2023/09/12 00:55:18;;;;;;;13.10;8.48;;;19.50;99.90;;;;;;5075321;28;20044;-85
2023/09/12 00:57:44;;;;;;;13.45;8.98;;;19.50;99.90;;;;;;5045081;28;20485;-86
2023/09/12 01:00:12;;;;;;;13.25;9.13;;;19.50;99.90;;;;;;5072622;28;20036;-85
2023/09/12 01:02:42;;;;;;;14.38;9.18;;;19.50;99.90;;;;;;5062384;28;20032;-85
2023/09/12 01:05:10;;;;;;;14.00;9.07;;;19.50;99.90;;;;;;5042182;28;20036;-85
2023/09/12 01:07:39;;;;;;;14.88;9.05;;;19.50;99.90;;;;;;5039288;28;20040;-85
2023/09/12 01:10:06;;;;;;;13.90;8.85;;;19.50;99.90;;;;;;5044781;28;20032;-85
2023/09/12 01:12:32;;;;;;;13.43;8.68;;;19.50;99.90;;;;;;5063929;28;20037;-85
2023/09/12 01:14:58;;;;;;;14.25;9.32;;;19.50;99.90;;;;;;5081067;28;20040;-85
2023/09/12 01:17:24;;;;;;;13.45;8.60;;;19.50;99.90;;;;;;5051930;28;20089;-85
2023/09/12 01:19:51;;;;;;;14.45;9.50;;;19.40;99.90;;;;;;5066415;28;20078;-85
2023/09/12 01:22:38;;;;;;;13.88;9.27;;;19.40;99.90;;;;;;5062710;28;20094;-85
2023/09/12 01:25:22;;;;;;;13.85;9.05;;;19.40;99.90;;;;;;5077299;28;20492;-85
2023/09/12 01:27:51;;;;;;;13.70;8.75;;;19.40;99.90;;;;;;5062599;28;20071;-85
2023/09/12 01:30:20;;;;;;;13.68;9.15;;;19.40;99.90;;;;;;5062430;28;20047;-86
2023/09/12 01:32:47;;;;;;;14.23;9.55;;;19.40;99.90;;;;;;5064121;28;20048;-86
2023/09/12 01:35:13;;;;;;;13.55;8.82;;;19.40;99.90;;;;;;5050008;28;20051;-86
2023/09/12 01:37:39;;;;;;;15.18;9.05;;;19.40;99.90;;;;;;5065301;28;20032;-86
2023/09/12 01:40:06;;;;;;;14.18;8.75;;;19.40;99.90;;;;;;5061322;28;20110;-86
2023/09/12 01:42:43;;;;;;;14.93;9.13;;;19.30;99.90;;;;;;5075737;28;20397;-86
2023/09/12 01:45:16;;;;;;;15.27;10.00;;;19.30;99.90;;;;;;5074350;28;20115;-85
2023/09/12 01:47:44;;;;;;;13.35;8.77;;;19.30;99.90;;;;;;5064108;28;20050;-85
2023/09/12 01:50:13;;;;;;;14.77;9.48;;;19.30;99.90;;;;;;5058953;28;20135;-85
2023/09/12 01:52:39;;;;;;;14.60;9.88;;;19.30;99.90;;;;;;5065683;28;20036;-85
2023/09/12 01:55:09;;;;;;;14.93;9.52;;;19.30;99.90;;;;;;5033189;28;20033;-85
2023/09/12 01:57:36;;;;;;;14.35;9.38;;;19.20;99.90;;;;;;5058294;28;20049;-85
2023/09/12 02:00:01;;;;;;;15.35;10.40;;;19.20;99.90;;;;;;5053073;28;20740;-85
2023/09/12 02:02:27;;;;;;;14.45;9.93;;;19.20;99.90;;;;;;5044762;28;20040;-85
2023/09/12 02:05:12;;;;;;;15.30;9.80;;;19.20;99.90;;;;;;5077249;28;20062;-85
2023/09/12 02:07:40;;;;;;;15.75;9.82;;;19.20;99.90;;;;;;5058417;28;20040;-85
2023/09/12 02:10:06;;;;;;;14.35;9.52;;;19.20;99.90;;;;;;5057751;28;20039;-85
2023/09/12 02:12:32;;;;;;;14.68;9.82;;;19.20;99.90;;;;;;5059446;28;20044;-85
2023/09/12 02:14:58;;;;;;;15.65;10.13;;;19.20;99.90;;;;;;5080239;28;20039;-85
2023/09/12 02:17:24;;;;;;;15.73;10.45;;;19.20;99.90;;;;;;5050050;28;20449;-86
2023/09/12 02:19:49;;;;;;;15.63;10.15;;;19.20;99.90;;;;;;5058950;28;20579;-85
2023/09/12 02:22:15;;;;;;;14.27;9.48;;;19.10;99.90;;;;;;5044012;28;20051;-85
2023/09/12 02:24:41;;;;;;;14.95;10.20;;;19.10;99.90;;;;;;5062288;28;20032;-86
2023/09/12 02:27:06;;;;;;;16.25;10.60;;;19.10;99.90;;;;;;5065935;28;20771;-86
2023/09/12 02:29:32;;;;;;;16.23;9.77;;;19.00;99.90;;;;;;5036773;28;20063;-85
2023/09/12 02:31:58;;;;;;;14.32;9.80;;;19.00;99.90;;;;;;5061860;28;20048;-85
2023/09/12 02:34:24;;;;;;;14.38;9.82;;;19.00;99.90;;;;;;5062452;28;20537;-85
2023/09/12 02:36:50;;;;;;;14.35;9.90;;;19.00;99.90;;;;;;5045459;28;20043;-85
2023/09/12 02:39:16;;;;;;;17.55;10.65;;;19.00;99.90;;;;;;5062103;28;20278;-85
2023/09/12 02:41:41;;;;;;;17.05;10.82;;;19.00;99.90;;;;;;5059937;28;20416;-86
2023/09/12 02:44:07;;;;;;;14.90;10.23;;;18.90;99.90;;;;;;5065151;28;20032;-85
2023/09/12 02:46:33;;;;;;;17.15;11.07;;;18.90;99.90;;;;;;5064900;28;20032;-85
2023/09/12 02:48:59;;;;;;;16.58;11.13;;;18.90;99.90;;;;;;5062698;28;20078;-85
2023/09/12 02:51:28;;;;;;;16.40;10.65;;;18.90;99.90;;;;;;5058322;28;20491;-85
2023/09/12 02:53:53;;;;;;;18.70;10.90;;;18.90;99.90;;;;;;5062070;28;20042;-85
2023/09/12 02:56:19;;;;;;;17.08;11.07;;;18.80;99.90;;;;;;5080299;28;20039;-85
2023/09/12 02:58:49;;;;;;;15.30;10.23;;;18.80;99.90;;;;;;5063021;28;20400;-85
2023/09/12 03:01:19;;;;;;;14.63;9.63;;;18.80;99.90;;;;;;5059838;28;20153;-86
2023/09/12 03:03:49;;;;;;;15.75;10.57;;;18.80;99.90;;;;;;5039780;28;20059;-85
2023/09/12 03:06:15;;;;;;;17.75;10.88;;;18.80;99.90;;;;;;5044685;28;20050;-85
2023/09/12 03:08:41;;;;;;;15.10;10.13;;;18.80;99.90;;;;;;5077002;28;20046;-85
2023/09/12 03:11:07;;;;;;;16.08;10.15;;;18.80;99.90;;;;;;5078218;28;20036;-86
2023/09/12 03:13:34;;;;;;;16.45;10.68;;;18.80;99.90;;;;;;5059182;28;20048;-85
2023/09/12 03:16:03;;;;;;;16.65;10.38;;;18.80;99.90;;;;;;5043004;28;20050;-85
2023/09/12 03:18:29;;;;;;;15.98;10.13;;;18.80;99.90;;;;;;5061681;28;20444;-86
2023/09/12 03:20:55;;;;;;;14.77;10.18;;;18.80;99.90;;;;;;5046463;28;20040;-85
2023/09/12 03:23:21;;;;;;;16.42;10.95;;;18.80;99.90;;;;;;5039916;28;20170;-86
2023/09/12 03:25:47;;;;;;;16.33;10.57;;;18.80;99.90;;;;;;5065302;28;20121;-85
2023/09/12 03:28:12;;;;;;;15.43;10.52;;;18.80;99.90;;;;;;5080717;28;20501;-85
2023/09/12 03:30:39;;;;;;;15.93;11.18;;;19.70;99.90;;;;;;5066238;28;20090;-86
2023/09/12 03:33:05;;;;;;;16.83;10.70;;;18.80;99.90;;;;;;5059276;28;20056;-85
2023/09/12 03:35:32;;;;;;;16.70;11.27;;;18.80;99.90;;;;;;5073578;28;20039;-85
2023/09/12 03:37:58;;;;;;;15.82;10.48;;;18.80;99.90;;;;;;5057802;28;20577;-85
2023/09/12 03:40:24;;;;;;;16.98;11.18;;;18.80;99.90;;;;;;5055348;28;20036;-85
2023/09/12 03:42:49;;;;;;;16.27;10.68;;;18.80;99.90;;;;;;5063452;28;20505;-85
2023/09/12 03:45:15;;;;;;;16.35;10.88;;;18.80;99.90;;;;;;5060708;28;20089;-85
2023/09/12 03:47:42;;;;;;;17.02;11.38;;;18.80;99.90;;;;;;5060746;28;20133;-85
2023/09/12 03:50:08;;;;;;;15.85;10.90;;;18.80;99.90;;;;;;5076958;28;20051;-85
2023/09/12 03:52:33;;;;;;;15.80;10.65;;;18.80;99.90;;;;;;5060543;28;20474;-85
2023/09/12 03:55:00;;;;;;;15.38;10.63;;;18.80;99.90;;;;;;5042061;28;20121;-85
2023/09/12 03:57:26;;;;;;;16.70;10.57;;;18.80;99.90;;;;;;5065682;28;20048;-85
2023/09/12 03:59:52;;;;;;;17.40;11.55;;;18.70;99.90;;;;;;5039497;28;20058;-85
2023/09/12 04:02:18;;;;;;;15.85;10.55;;;18.70;99.90;;;;;;5038210;28;20049;-85
2023/09/12 04:04:44;;;;;;;15.82;10.38;;;18.70;99.90;;;;;;5062914;28;20512;-85
2023/09/12 04:07:10;;;;;;;16.25;10.93;;;18.70;99.90;;;;;;5062238;28;20133;-85
2023/09/12 04:09:36;;;;;;;15.10;10.25;;;18.60;99.90;;;;;;5075365;28;20623;-85
2023/09/12 04:12:02;;;;;;;16.60;10.32;;;18.60;99.90;;;;;;5057135;28;20036;-85
2023/09/12 04:14:28;;;;;;;15.95;10.30;;;18.60;99.90;;;;;;5061927;28;20496;-85
2023/09/12 04:16:53;;;;;;;15.43;10.82;;;18.60;99.90;;;;;;5062279;28;20047;-85
2023/09/12 04:19:19;;;;;;;17.45;10.93;;;18.60;99.90;;;;;;5084875;28;20039;-85
2023/09/12 04:21:45;;;;;;;16.92;10.48;;;18.60;99.90;;;;;;5066352;28;20504;-85
2023/09/12 04:24:10;;;;;;;17.50;11.02;;;18.50;99.90;;;;;;5066334;28;20044;-85
2023/09/12 04:26:36;;;;;;;16.77;10.45;;;18.50;99.90;;;;;;5065009;28;20048;-85
2023/09/12 04:29:02;;;;;;;15.23;10.65;;;18.50;99.90;;;;;;5081682;28;20405;-85
2023/09/12 04:31:28;;;;;;;21.45;13.50;;;18.40;99.90;;;;;;5025454;28;20075;-85
2023/09/12 04:33:54;;;;;;;21.83;13.68;;;18.40;99.90;;;;;;5045023;28;20060;-85
2023/09/12 04:36:20;;;;;;;19.75;13.45;;;18.40;99.90;;;;;;5054761;28;20398;-85
2023/09/12 04:38:46;;;;;;;19.77;13.50;;;18.40;99.90;;;;;;5037209;28;20256;-85
2023/09/12 04:41:16;;;;;;;19.50;13.82;;;18.40;99.90;;;;;;5040315;28;20609;-85
2023/09/12 04:43:44;;;;;;;21.02;13.50;;;18.40;99.90;;;;;;5062347;28;20687;-85
2023/09/12 04:46:10;;;;;;;18.35;12.18;;;18.30;99.90;;;;;;5042009;28;20043;-85
2023/09/12 04:48:35;;;;;;;15.77;10.90;;;18.40;99.90;;;;;;5053288;28;20053;-85
2023/09/12 04:51:01;;;;;;;16.23;11.65;;;18.30;99.90;;;;;;5044572;28;20040;-85
2023/09/12 04:53:33;;;;;;;17.25;10.70;;;18.30;99.90;;;;;;5062100;28;20032;-86
2023/09/12 04:55:59;;;;;;;15.90;11.00;;;18.30;99.90;;;;;;5042862;28;20187;-85
2023/09/12 04:58:25;;;;;;;15.88;11.10;;;18.30;99.90;;;;;;5053882;28;20486;-85
2023/09/12 05:00:50;;;;;;;15.60;10.80;;;18.30;99.90;;;;;;5053420;28;20052;-84
2023/09/12 05:03:16;;;;;;;15.63;10.73;;;18.30;99.90;;;;;;5059818;28;20044;-85
2023/09/12 05:05:44;;;;;;;15.43;10.30;;;18.30;99.90;;;;;;5061281;28;20041;-85
2023/09/12 05:08:10;;;;;;;17.92;12.00;;;18.30;99.90;;;;;;5063170;28;20111;-85
2023/09/12 05:10:38;;;;;;;17.02;11.27;;;18.20;99.90;;;;;;5064969;28;20189;-85
2023/09/12 05:13:04;;;;;;;17.05;11.25;;;18.20;99.90;;;;;;5049558;28;20033;-85
2023/09/12 05:15:30;;;;;;;16.58;11.57;;;18.20;99.90;;;;;;5055266;28;20815;-85
2023/09/12 05:17:56;;;;;;;18.10;11.52;;;18.20;99.90;;;;;;5048232;28;20120;-85
2023/09/12 05:20:21;;;;;;;16.92;11.55;;;18.20;99.90;;;;;;5032956;28;20040;-85
2023/09/12 05:22:47;;;;;;;16.20;11.50;;;18.20;99.90;;;;;;5051259;28;20043;-85
2023/09/12 05:25:13;;;;;;;17.30;12.57;;;18.20;99.90;;;;;;5049098;28;20044;-86
2023/09/12 05:27:39;;;;;;;16.20;11.88;;;18.20;99.90;;;;;;5056774;28;20498;-85
2023/09/12 05:30:05;;;;;;;17.10;11.75;;;18.20;99.90;;;;;;5042003;28;20047;-85
2023/09/12 05:32:31;;;;;;;17.73;12.32;;;18.20;99.90;;;;;;5058895;28;20131;-85
2023/09/12 05:34:57;;;;;;;16.40;12.10;;;18.20;99.90;;;;;;5049014;28;20140;-85
2023/09/12 05:37:22;;;;;;;17.45;11.65;;;18.20;99.90;;;;;;5049689;28;20037;-85
2023/09/12 05:39:48;;;;;;;18.13;12.35;;;18.30;99.90;;;;;;5061976;28;20036;-86
2023/09/12 05:42:20;;;;;;;17.48;11.88;;;18.20;99.90;;;;;;5052278;28;20094;-85
2023/09/12 05:44:46;;;;;;;17.35;11.60;;;18.20;99.90;;;;;;5057894;28;20595;-85
2023/09/12 05:47:12;;;;;;;17.88;11.65;;;18.20;99.90;;;;;;5058389;28;20061;-86
2023/09/12 05:49:38;;;;;;;18.55;12.90;;;18.20;99.90;;;;;;5038867;28;20420;-86
2023/09/12 05:52:04;;;;;;;16.10;11.38;;;18.20;99.90;;;;;;5057728;28;20059;-86
2023/09/12 05:54:30;;;;;;;16.48;11.38;;;18.20;99.90;;;;;;5056278;28;20114;-86
2023/09/12 05:56:55;;;;;;;16.35;11.55;;;18.20;99.90;;;;;;5059228;28;20608;-86
2023/09/12 05:59:21;;;;;;;16.25;11.52;;;18.10;99.90;;;;;;5059006;28;20040;-85
2023/09/12 06:01:48;;;;;;;15.93;10.95;;;18.20;99.90;;;;;;5059911;28;20042;-85
2023/09/12 06:04:14;;;;;;;16.42;11.50;;;18.20;99.90;;;;;;5061494;28;20041;-85
2023/09/12 06:06:40;;;;;;;16.75;12.07;;;18.30;99.90;;;;;;5059423;28;20512;-85
2023/09/12 06:09:09;;;;;;;16.05;11.27;;;18.30;99.90;;;;;;5041651;28;20045;-87
2023/09/12 06:11:37;;;;;;;17.45;12.48;;;18.30;99.90;;;;;;5038584;28;20056;-86
2023/09/12 06:14:03;;;;;;;16.42;12.00;;;18.30;99.90;;;;;;5061058;28;20044;-87
2023/09/12 06:16:29;;;;;;;17.08;11.82;;;18.30;99.90;;;;;;5060508;28;20437;-88
2023/09/12 06:18:55;;;;;;;13.50;9.13;;;18.30;99.90;;;;;;5053767;28;20044;-87
2023/09/12 06:21:21;;;;;;;13.45;9.68;;;18.30;99.90;;;;;;5057117;28;20298;-89
2023/09/12 06:24:09;;;;;;;14.07;9.85;;;18.30;99.90;;;;;;5045272;28;20073;-87
2023/09/12 06:26:35;;;;;;;14.82;9.82;;;18.40;99.90;;;;;;5036091;28;20056;-88
2023/09/12 06:29:01;;;;;;;14.75;9.60;;;18.40;99.90;;;;;;5052977;28;20044;-88
2023/09/12 06:31:26;;;;;;;14.77;9.65;;;18.50;99.90;;;;;;5045170;28;20496;-86
2023/09/12 06:33:52;;;;;;;16.05;10.02;;;18.50;99.90;;;;;;5050775;28;20132;-87
2023/09/12 06:36:18;;;;;;;13.30;8.63;;;18.50;99.90;;;;;;5043095;28;20485;-86
2023/09/12 06:38:43;;;;;;;13.50;10.00;;;18.50;99.90;;;;;;5049702;28;20037;-85
2023/09/12 06:41:09;;;;;;;14.52;9.20;;;18.40;99.90;;;;;;5031176;28;20490;-86
2023/09/12 06:43:35;;;;;;;17.10;10.70;;;18.40;99.90;;;;;;5055681;28;20037;-84
2023/09/12 06:46:00;;;;;;;14.75;10.20;;;18.40;99.90;;;;;;5058288;28;20710;-85
2023/09/12 06:48:26;;;;;;;14.73;10.10;;;18.40;99.90;;;;;;5057289;28;20033;-86
2023/09/12 06:50:54;;;;;;;14.60;9.98;;;18.40;99.90;;;;;;5049828;28;20049;-86
2023/09/12 06:53:19;;;;;;;15.18;10.85;;;18.40;99.90;;;;;;5053052;28;20052;-86
2023/09/12 06:55:45;;;;;;;16.50;11.75;;;18.40;99.90;;;;;;5041116;28;20099;-86
2023/09/12 06:58:11;;;;;;;10.02;7.70;;;18.40;99.90;;;;;;5054939;28;20050;-86
2023/09/12 07:00:36;;;;;;;11.23;9.50;;;18.30;99.90;;;;;;5057119;28;21640;-86
2023/09/12 07:03:02;;;;;;;10.27;7.38;;;18.40;99.90;;;;;;5046834;28;20039;-86
2023/09/12 07:05:28;;;;;;;11.32;7.57;;;18.40;99.90;;;;;;5043411;28;20120;-86
2023/09/12 07:07:54;;;;;;;11.93;8.13;;;18.40;99.90;;;;;;5051860;28;20040;-85
2023/09/12 07:10:19;;;;;;;10.90;7.68;;;18.50;99.90;;;;;;5051309;28;20032;-86
2023/09/12 07:12:45;;;;;;;11.10;7.90;;;18.60;99.90;;;;;;5056071;28;20416;-86
2023/09/12 07:15:11;;;;;;;11.73;7.88;;;18.60;99.90;;;;;;5059404;28;20040;-86
2023/09/12 07:17:36;;;;;;;12.02;7.97;;;18.70;99.90;;;;;;5029687;28;20084;-86
2023/09/12 07:20:02;;;;;;;11.40;7.78;;;18.70;99.90;;;;;;5049950;28;20111;-85
2023/09/12 07:22:28;;;;;;;12.18;8.43;;;18.70;99.90;;;;;;5044769;28;20048;-85
2023/09/12 07:24:54;;;;;;;13.52;11.52;;;18.80;99.90;;;;;;5053123;28;20041;-85
2023/09/12 07:27:20;;;;;;;13.38;9.38;;;18.80;99.90;;;;;;5050134;28;20037;-87
2023/09/12 07:29:45;;;;;;;13.52;9.60;;;18.90;99.90;;;;;;5064365;28;20508;-86
2023/09/12 07:32:11;;;;;;;13.32;9.65;;;18.90;99.90;;;;;;5028513;28;20045;-86
2023/09/12 07:34:37;;;;;;;13.88;9.98;;;19.00;99.90;;;;;;5033333;28;20085;-86
2023/09/12 07:37:03;;;;;;;13.77;9.77;;;19.10;99.90;;;;;;5016394;28;21317;-85
2023/09/12 07:39:29;;;;;;;13.85;10.23;;;19.20;99.90;;;;;;5038857;28;20498;-85
2023/09/12 07:41:55;;;;;;;13.30;9.32;;;19.30;99.90;;;;;;5029598;28;20117;-85
2023/09/12 07:44:20;;;;;;;13.40;9.85;;;19.30;99.90;;;;;;5030274;28;20653;-85
2023/09/12 07:46:46;;;;;;;13.02;9.32;;;19.40;99.90;;;;;;5044633;28;20393;-86
2023/09/12 07:49:12;;;;;;;13.30;8.95;;;19.50;99.90;;;;;;5033536;28;20486;-86
2023/09/12 07:51:38;;;;;;;13.05;9.48;;;19.50;99.90;;;;;;5046258;28;20049;-87
2023/09/12 07:54:03;;;;;;;12.55;9.35;;;19.60;99.90;;;;;;5043961;28;20190;-86
2023/09/12 07:56:29;;;;;;;12.68;9.23;;;19.70;99.90;;;;;;5041988;28;20470;-85
2023/09/12 07:58:57;;;;;;;12.38;9.18;;;19.70;99.90;;;;;;5034009;28;20065;-86
2023/09/12 08:01:23;;;;;;;12.10;8.88;;;19.80;99.90;;;;;;5041235;28;20052;-86
2023/09/12 08:03:48;;;;;;;12.15;8.82;;;19.80;99.90;;;;;;5042716;28;20037;-86
2023/09/12 08:06:14;;;;;;;12.27;8.88;;;19.90;99.90;;;;;;5037973;28;20416;-86
2023/09/12 08:08:40;;;;;;;12.93;9.25;;;20.00;99.90;;;;;;5035968;28;20505;-86
2023/09/12 08:11:05;;;;;;;11.60;7.95;;;20.00;99.90;;;;;;5016499;28;20037;-86
2023/09/12 08:13:31;;;;;;;10.52;7.32;;;20.00;99.90;;;;;;5038648;28;20047;-86
2023/09/12 08:15:57;;;;;;;10.80;7.35;;;19.90;99.90;;;;;;5042930;28;20037;-84
2023/09/12 08:18:30;;;;;;;10.60;7.07;;;19.90;99.90;;;;;;5018186;28;20037;-85
2023/09/12 08:20:57;;;;;;;11.10;8.00;;;19.80;99.90;;;;;;5042206;28;20049;-86
2023/09/12 08:23:23;;;;;;;10.38;7.40;;;19.80;99.90;;;;;;5039994;28;20045;-86
2023/09/12 08:25:49;;;;;;;10.45;7.05;;;19.80;99.90;;;;;;5030119;28;20052;-86
2023/09/12 08:28:15;;;;;;;10.85;7.75;;;19.70;99.90;;;;;;5026520;28;20128;-85
2023/09/12 08:30:40;;;;;;;10.20;6.85;;;19.70;99.90;;;;;;5036772;28;20162;-85
2023/09/12 08:33:06;;;;;;;11.57;7.70;;;19.70;99.90;;;;;;5047489;28;20064;-86
2023/09/12 08:35:33;;;;;;;11.10;7.72;;;19.70;99.90;;;;;;5054424;28;20154;-86
2023/09/12 08:37:58;;;;;;;11.07;7.95;;;19.70;99.90;;;;;;5051401;28;20385;-86
2023/09/12 08:40:24;;;;;;;11.20;7.65;;;19.80;99.90;;;;;;5050546;28;20604;-86
2023/09/12 08:42:52;;;;;;;10.35;7.28;;;19.80;99.90;;;;;;5054544;28;20084;-86
2023/09/12 08:45:18;;;;;;;10.60;7.22;;;19.80;99.90;;;;;;5061818;28;20045;-86
2023/09/12 08:47:47;;;;;;;9.90;6.55;;;19.90;99.90;;;;;;5063150;28;20040;-86
2023/09/12 08:50:15;;;;;;;10.52;7.38;;;20.00;99.90;;;;;;5057750;28;20044;-85
2023/09/12 08:52:42;;;;;;;10.18;6.90;;;20.10;99.90;;;;;;5056323;28;20049;-86
2023/09/12 08:55:08;;;;;;;10.95;7.25;;;20.20;99.90;;;;;;5050722;28;20091;-86
2023/09/12 08:57:37;;;;;;;10.35;7.07;;;20.20;99.90;;;;;;5054667;28;20059;-87
2023/09/12 09:00:14;;;;;;;10.60;7.07;;;20.20;99.90;;;;;;5043062;28;20037;-86
2023/09/12 09:02:43;;;;;;;10.88;7.65;;;20.30;99.90;;;;;;5050126;28;20371;-87
2023/09/12 09:05:11;;;;;;;11.45;7.30;;;20.30;99.90;;;;;;5058557;28;20068;-86
2023/09/12 09:07:38;;;;;;;11.02;7.15;;;20.30;99.90;;;;;;5044275;28;20112;-87
2023/09/12 09:10:07;;;;;;;10.77;7.00;;;20.40;99.90;;;;;;5062300;28;20037;-85
2023/09/12 09:12:34;;;;;;;10.13;6.95;;;20.40;99.90;;;;;;5057679;28;20040;-86
2023/09/12 09:15:29;;;;;;;10.05;6.97;;;20.60;99.90;;;;;;5051793;28;20044;-86
2023/09/12 09:18:00;;;;;;;10.88;7.20;;;20.60;99.90;;;;;;5057251;28;20044;-85
2023/09/12 09:20:30;;;;;;;10.73;7.53;;;20.70;99.90;;;;;;5061542;28;20446;-86
2023/09/12 09:23:01;;;;;;;10.68;7.07;;;20.80;99.90;;;;;;5056953;28;20047;-85
2023/09/12 09:25:27;;;;;;;10.07;7.00;;;20.90;99.90;;;;;;5051962;28;20481;-86
2023/09/12 09:27:53;;;;;;;11.05;7.13;;;20.90;99.90;;;;;;5052148;28;20047;-86
2023/09/12 09:30:43;;;;;;;10.32;7.03;;;21.00;99.90;;;;;;5065193;28;20041;-86
2023/09/12 09:33:09;;;;;;;10.60;7.03;;;21.10;99.90;;;;;;5059436;28;20055;-85
2023/09/12 09:35:36;;;;;;;10.48;6.82;;;21.10;99.90;;;;;;5062080;28;20109;-86
2023/09/12 09:38:03;;;;;;;10.55;7.35;;;21.20;99.90;;;;;;5060611;28;20093;-87
2023/09/12 09:40:29;;;;;;;10.57;7.05;;;21.40;99.90;;;;;;5064384;28;20036;-86
2023/09/12 09:43:02;;;;;;;10.45;7.13;;;21.60;99.90;;;;;;5040700;28;20036;-86
2023/09/12 09:45:29;;;;;;;10.40;6.85;;;21.80;99.90;;;;;;5063487;28;20064;-86
2023/09/12 09:48:04;;;;;;;11.43;6.68;;;21.80;99.90;;;;;;5063361;28;20044;-86
2023/09/12 09:50:30;;;;;;;10.45;7.10;;;21.80;99.90;;;;;;5064056;28;20098;-86
2023/09/12 09:52:57;;;;;;;10.23;6.85;;;21.70;99.90;;;;;;5067660;28;20028;-86
2023/09/12 09:55:23;;;;;;;11.02;7.28;;;21.70;99.90;;;;;;5038654;28;20041;-86
2023/09/12 09:57:52;;;;;;;10.38;6.78;;;21.60;99.90;;;;;;5065461;28;20101;-86
2023/09/12 10:00:22;;;;;;;10.40;7.00;;;21.60;99.90;;;;;;5063166;28;20048;-86
2023/09/12 10:02:51;;;;;;;10.50;6.72;;;21.60;99.90;;;;;;5061067;28;20046;-86
2023/09/12 10:05:17;;;;;;;10.98;7.13;;;21.60;99.90;;;;;;5071010;28;20052;-86
2023/09/12 10:07:47;;;;;;;10.55;6.55;;;21.60;99.90;;;;;;5068056;28;20042;-86
2023/09/12 10:10:14;;;;;;;9.98;6.68;;;21.50;99.90;;;;;;5041477;28;20452;-86
2023/09/12 10:12:48;;;;;;;10.43;6.47;;;21.50;99.90;;;;;;5044495;28;20047;-87
2023/09/12 10:15:16;;;;;;;10.85;6.55;;;21.50;99.90;;;;;;5063103;28;20060;-87
2023/09/12 10:17:44;;;;;;;9.65;6.22;;;21.70;99.90;;;;;;5062627;28;20067;-85
2023/09/12 10:20:19;;;;;;;11.18;7.00;;;21.70;99.90;;;;;;5062258;28;21477;-86
2023/09/12 10:23:13;;;;;;;11.63;7.53;;;21.90;99.90;;;;;;5055497;28;20093;-85
2023/09/12 10:25:40;;;;;;;11.60;7.20;;;22.10;99.90;;;;;;5066595;28;20053;-86
2023/09/12 10:28:06;;;;;;;12.25;8.05;;;22.20;99.90;;;;;;5062798;28;20064;-86
2023/09/12 10:30:34;;;;;;;14.45;9.52;;;22.30;99.90;;;;;;5068945;28;20140;-87
2023/09/12 10:33:03;;;;;;;12.77;8.57;;;22.40;99.90;;;;;;5060102;28;20052;-87
2023/09/12 10:35:31;;;;;;;12.38;7.97;;;22.40;99.90;;;;;;5059060;28;20076;-87
2023/09/12 10:38:01;;;;;;;11.93;8.35;;;22.30;99.90;;;;;;5064308;28;20052;-86
2023/09/12 10:40:28;;;;;;;11.88;8.10;;;22.30;99.90;;;;;;5040826;28;20032;-85
2023/09/12 10:42:56;;;;;;;11.98;7.60;;;22.30;99.90;;;;;;5065326;28;20059;-86
2023/09/12 10:45:22;;;;;;;10.98;7.20;;;22.20;99.90;;;;;;5072958;28;20150;-86
2023/09/12 10:47:48;;;;;;;12.40;7.70;;;22.20;99.90;;;;;;5062165;28;20513;-86
2023/09/12 10:50:14;;;;;;;11.35;7.72;;;22.20;99.90;;;;;;5060504;28;20032;-87
2023/09/12 10:52:41;;;;;;;11.40;7.60;;;22.30;99.90;;;;;;5046671;28;20045;-87
2023/09/12 10:55:08;;;;;;;11.45;8.02;;;22.30;99.90;;;;;;5056736;28;20048;-86
2023/09/12 10:57:34;;;;;;;18.92;9.43;;;22.40;99.90;;;;;;5061318;28;20040;-86
2023/09/12 11:00:08;;;;;;;13.98;9.25;;;22.40;99.90;;;;;;5039733;28;20063;-86
2023/09/12 11:02:36;;;;;;;14.90;9.93;;;22.50;99.90;;;;;;5057155;28;20048;-86
2023/09/12 11:05:06;;;;;;;13.93;9.35;;;22.50;99.90;;;;;;5069717;28;20051;-86
2023/09/12 11:07:35;;;;;;;12.43;8.82;;;22.60;99.90;;;;;;5057959;28;20505;-87
2023/09/12 11:10:15;;;;;;;14.20;9.30;;;22.70;99.90;;;;;;5062328;28;20066;-88
2023/09/12 11:12:41;;;;;;;14.77;9.82;;;22.90;99.90;;;;;;5063133;28;20048;-86
2023/09/12 11:15:10;;;;;;;14.13;9.45;;;22.90;99.90;;;;;;5062438;28;20100;-86
2023/09/12 11:17:43;;;;;;;14.82;9.30;;;23.10;99.90;;;;;;5061784;28;20070;-86
2023/09/12 11:20:12;;;;;;;13.73;8.93;;;23.10;99.90;;;;;;5071488;28;20097;-86
2023/09/12 11:22:40;;;;;;;12.75;8.27;;;23.10;99.90;;;;;;5058326;28;20043;-87
2023/09/12 11:25:17;;;;;;;13.40;8.85;;;23.20;99.90;;;;;;5062643;28;20130;-87
2023/09/12 11:28:04;;;;;;;14.23;8.75;;;23.20;99.90;;;;;;5065833;28;20433;-86
2023/09/12 11:30:30;;;;;;;14.25;9.85;;;23.20;99.90;;;;;;5067416;28;20044;-87
2023/09/12 11:32:57;;;;;;;13.75;9.65;;;23.20;99.90;;;;;;5046553;28;20053;-85
2023/09/12 11:35:24;;;;;;;13.40;9.30;;;23.20;99.90;;;;;;5066634;28;20048;-88
2023/09/12 11:37:58;;;;;;;14.68;9.82;;;23.20;99.90;;;;;;5058860;28;20040;-89
2023/09/12 11:40:44;;;;;;;13.52;9.32;;;23.20;99.90;;;;;;5066243;28;20044;-88
2023/09/12 11:43:21;;;;;;;12.93;8.90;;;23.20;99.90;;;;;;5063442;28;20046;-89
2023/09/12 11:45:47;;;;;;;13.20;8.27;;;23.30;99.90;;;;;;5076644;28;20136;-89
2023/09/12 11:48:13;;;;;;;13.70;9.55;;;23.30;99.90;;;;;;5068067;28;20048;-89
2023/09/12 11:50:41;;;;;;;14.50;8.95;;;23.40;99.90;;;;;;5035202;28;20115;-88
2023/09/12 11:53:11;;;;;;;13.63;8.43;;;23.50;99.90;;;;;;5064153;28;20036;-87
2023/09/12 11:55:46;;;;;;;9.73;6.22;;;23.50;99.90;;;;;;5063215;28;20538;-87
2023/09/12 11:58:15;;;;;;;9.10;5.95;;;23.60;99.90;;;;;;5078778;28;20302;-88
2023/09/12 12:00:52;;;;;;;11.10;6.43;;;23.70;99.90;;;;;;5065862;28;20041;-87
2023/09/12 12:03:20;;;;;;;10.05;6.28;;;23.80;99.90;;;;;;5060739;28;20033;-86
2023/09/12 12:05:46;;;;;;;9.93;6.38;;;23.80;99.90;;;;;;5058942;28;20040;-89
2023/09/12 12:08:13;;;;;;;10.27;6.53;;;23.90;99.90;;;;;;5054874;28;20067;-87
2023/09/12 12:10:40;;;;;;;10.20;6.05;;;23.90;99.90;;;;;;5072702;28;20064;-87
2023/09/12 12:13:17;;;;;;;9.98;6.20;;;24.20;99.90;;;;;;5069521;28;20036;-91
2023/09/12 12:15:43;;;;;;;9.75;6.10;;;24.30;99.90;;;;;;5062708;28;20408;-90
2023/09/12 12:18:08;;;;;;;10.00;6.20;;;24.30;99.90;;;;;;5062760;28;20032;-90
2023/09/12 12:20:35;;;;;;;10.05;5.95;;;;;;;;;;5041600;28;20040;-87
2023/09/12 12:23:01;;;;;;;9.60;5.82;;;24.60;99.90;;;;;;5061117;28;20067;-88
2023/09/12 12:25:31;;;;;;;9.82;5.53;;;24.60;99.90;;;;;;5042370;28;20040;-88
2023/09/12 12:27:57;;;;;;;9.00;5.25;;;24.60;99.90;;;;;;5065740;28;20119;-86
2023/09/12 12:30:22;;;;;;;9.45;5.68;;;24.70;99.90;;;;;;5061071;28;20512;-87
2023/09/12 12:32:51;;;;;;;8.75;5.35;;;24.90;99.90;;;;;;5063904;28;20063;-88
2023/09/12 12:35:22;;;;;;;9.98;5.53;;;24.90;99.90;;;;;;5073901;28;20052;-87